sensor_id;sensor_type;location;lat;lon;timestamp;temperature;humidity
28839;DHT22;15971;50.772;6.100;2022-10-16T00:00:41;14.90;99.90
28839;DHT22;15971;50.772;6.100;2022-10-16T00:03:08;14.90;99.90
28839;DHT22;15971;50.772;6.100;2022-10-16T00:05:42;15.00;99.90
28839;DHT22;15971;50.772;6.100;2022-10-16T00:08:10;15.00;99.90
28839;DHT22;15971;50.772;6.100;2022-10-16T00:10:36;15.10;99.90
28839;DHT22;15971;50.772;6.100;2022-10-16T00:13:02;14.90;99.90
28839;DHT22;15971;50.772;6.100;2022-10-16T00:15:28;14.90;99.90
28839;DHT22;15971;50.772;6.100;2022-10-16T00:17:53;14.90;99.90
28839;DHT22;15971;50.772;6.100;2022-10-16T00:20:19;14.90;99.90
28839;DHT22;15971;50.772;6.100;2022-10-16T00:22:45;14.80;99.90
28839;DHT22;15971;50.772;6.100;2022-10-16T00:25:10;15.00;99.90
28839;DHT22;15971;50.772;6.100;2022-10-16T00:27:36;15.10;99.90
28839;DHT22;15971;50.772;6.100;2022-10-16T00:30:02;14.50;99.90
28839;DHT22;15971;50.772;6.100;2022-10-16T00:32:28;14.70;99.90
28839;DHT22;15971;50.772;6.100;2022-10-16T00:34:54;14.80;99.90
28839;DHT22;15971;50.772;6.100;2022-10-16T00:37:20;14.90;99.90
28839;DHT22;15971;50.772;6.100;2022-10-16T00:39:46;14.70;99.90
28839;DHT22;15971;50.772;6.100;2022-10-16T00:42:17;15.00;99.90
28839;DHT22;15971;50.772;6.100;2022-10-16T00:44:50;14.60;99.90
28839;DHT22;15971;50.772;6.100;2022-10-16T00:47:37;14.60;99.90
28839;DHT22;15971;50.772;6.100;2022-10-16T00:50:13;14.60;99.90
28839;DHT22;15971;50.772;6.100;2022-10-16T00:52:44;14.60;99.90
28839;DHT22;15971;50.772;6.100;2022-10-16T00:55:11;14.70;99.90
28839;DHT22;15971;50.772;6.100;2022-10-16T00:57:37;14.70;99.90
28839;DHT22;15971;50.772;6.100;2022-10-16T01:00:08;14.70;99.90
28839;DHT22;15971;50.772;6.100;2022-10-16T01:02:34;14.70;99.90
28839;DHT22;15971;50.772;6.100;2022-10-16T01:04:59;14.70;99.90
28839;DHT22;15971;50.772;6.100;2022-10-16T01:10:24;14.70;99.90
28839;DHT22;15971;50.772;6.100;2022-10-16T01:13:11;14.70;99.90
28839;DHT22;15971;50.772;6.100;2022-10-16T01:15:46;14.70;99.90
28839;DHT22;15971;50.772;6.100;2022-10-16T01:18:28;14.70;99.90
28839;DHT22;15971;50.772;6.100;2022-10-16T01:21:02;14.60;99.90
28839;DHT22;15971;50.772;6.100;2022-10-16T01:23:36;14.70;99.90
28839;DHT22;15971;50.772;6.100;2022-10-16T01:26:20;14.70;99.90
28839;DHT22;15971;50.772;6.100;2022-10-16T01:29:16;14.70;99.90
28839;DHT22;15971;50.772;6.100;2022-10-16T01:31:59;14.60;99.90
28839;DHT22;15971;50.772;6.100;2022-10-16T01:34:33;14.70;99.90
28839;DHT22;15971;50.772;6.100;2022-10-16T01:37:09;14.60;99.90
28839;DHT22;15971;50.772;6.100;2022-10-16T01:39:38;14.60;99.90
28839;DHT22;15971;50.772;6.100;2022-10-16T01:42:09;14.60;99.90
28839;DHT22;15971;50.772;6.100;2022-10-16T01:44:37;14.70;99.90
28839;DHT22;15971;50.772;6.100;2022-10-16T01:47:05;14.80;99.90
28839;DHT22;15971;50.772;6.100;2022-10-16T01:49:34;14.80;99.90
28839;DHT22;15971;50.772;6.100;2022-10-16T01:52:06;14.90;99.90
28839;DHT22;15971;50.772;6.100;2022-10-16T01:54:35;14.80;99.90
28839;DHT22;15971;50.772;6.100;2022-10-16T01:57:04;14.70;99.90
28839;DHT22;15971;50.772;6.100;2022-10-16T01:59:35;14.90;99.90
28839;DHT22;15971;50.772;6.100;2022-10-16T02:02:06;14.90;99.90
28839;DHT22;15971;50.772;6.100;2022-10-16T02:04:53;15.10;99.90
28839;DHT22;15971;50.772;6.100;2022-10-16T02:07:20;14.70;99.90
28839;DHT22;15971;50.772;6.100;2022-10-16T02:09:45;14.80;99.90
28839;DHT22;15971;50.772;6.100;2022-10-16T02:12:29;14.70;99.90
28839;DHT22;15971;50.772;6.100;2022-10-16T02:14:56;14.90;99.90
28839;DHT22;15971;50.772;6.100;2022-10-16T02:17:22;14.90;99.90
28839;DHT22;15971;50.772;6.100;2022-10-16T02:19:50;14.80;99.90
28839;DHT22;15971;50.772;6.100;2022-10-16T02:24:53;14.90;99.90
28839;DHT22;15971;50.772;6.100;2022-10-16T02:27:40;14.90;99.90
28839;DHT22;15971;50.772;6.100;2022-10-16T02:30:13;14.80;99.90
28839;DHT22;15971;50.772;6.100;2022-10-16T02:32:42;14.70;99.90
28839;DHT22;15971;50.772;6.100;2022-10-16T02:35:10;14.80;99.90
28839;DHT22;15971;50.772;6.100;2022-10-16T02:37:37;14.60;99.90
28839;DHT22;15971;50.772;6.100;2022-10-16T02:40:04;14.60;99.90
28839;DHT22;15971;50.772;6.100;2022-10-16T02:42:38;14.60;99.90
28839;DHT22;15971;50.772;6.100;2022-10-16T02:45:06;14.60;99.90
28839;DHT22;15971;50.772;6.100;2022-10-16T02:47:32;14.60;99.90
28839;DHT22;15971;50.772;6.100;2022-10-16T02:49:58;14.70;99.90
28839;DHT22;15971;50.772;6.100;2022-10-16T02:52:24;14.60;99.90
28839;DHT22;15971;50.772;6.100;2022-10-16T02:54:49;14.60;99.90
28839;DHT22;15971;50.772;6.100;2022-10-16T02:57:15;14.60;99.90
28839;DHT22;15971;50.772;6.100;2022-10-16T02:59:41;14.60;99.90
28839;DHT22;15971;50.772;6.100;2022-10-16T03:02:07;14.60;99.90
28839;DHT22;15971;50.772;6.100;2022-10-16T03:04:32;14.70;99.90
28839;DHT22;15971;50.772;6.100;2022-10-16T03:06:58;14.50;99.90
28839;DHT22;15971;50.772;6.100;2022-10-16T03:09:23;14.60;99.90
28839;DHT22;15971;50.772;6.100;2022-10-16T03:11:49;14.50;99.90
28839;DHT22;15971;50.772;6.100;2022-10-16T03:14:14;14.50;99.90
28839;DHT22;15971;50.772;6.100;2022-10-16T03:16:40;14.50;99.90
28839;DHT22;15971;50.772;6.100;2022-10-16T03:19:05;14.40;99.90
28839;DHT22;15971;50.772;6.100;2022-10-16T03:21:31;14.50;99.90
28839;DHT22;15971;50.772;6.100;2022-10-16T03:23:57;14.50;99.90
28839;DHT22;15971;50.772;6.100;2022-10-16T03:26:22;14.50;99.90
28839;DHT22;15971;50.772;6.100;2022-10-16T03:28:48;14.50;99.90
28839;DHT22;15971;50.772;6.100;2022-10-16T03:31:13;14.60;99.90
28839;DHT22;15971;50.772;6.100;2022-10-16T03:33:39;14.80;99.90
28839;DHT22;15971;50.772;6.100;2022-10-16T03:36:05;14.60;99.90
28839;DHT22;15971;50.772;6.100;2022-10-16T03:38:30;14.60;99.90
28839;DHT22;15971;50.772;6.100;2022-10-16T03:40:56;14.60;99.90
28839;DHT22;15971;50.772;6.100;2022-10-16T03:43:22;14.50;99.90
28839;DHT22;15971;50.772;6.100;2022-10-16T03:45:47;14.50;99.90
28839;DHT22;15971;50.772;6.100;2022-10-16T03:48:13;14.50;99.90
28839;DHT22;15971;50.772;6.100;2022-10-16T03:50:38;14.60;99.90
28839;DHT22;15971;50.772;6.100;2022-10-16T03:53:04;14.60;99.90
28839;DHT22;15971;50.772;6.100;2022-10-16T03:55:29;14.60;99.90
28839;DHT22;15971;50.772;6.100;2022-10-16T03:57:55;14.60;99.90
28839;DHT22;15971;50.772;6.100;2022-10-16T04:00:20;14.60;99.90
28839;DHT22;15971;50.772;6.100;2022-10-16T04:02:46;14.70;99.90
28839;DHT22;15971;50.772;6.100;2022-10-16T04:05:12;14.70;99.90
28839;DHT22;15971;50.772;6.100;2022-10-16T04:07:37;14.60;99.90
28839;DHT22;15971;50.772;6.100;2022-10-16T04:10:03;14.50;99.90
28839;DHT22;15971;50.772;6.100;2022-10-16T04:12:29;14.50;99.90
28839;DHT22;15971;50.772;6.100;2022-10-16T04:14:55;14.50;99.90
28839;DHT22;15971;50.772;6.100;2022-10-16T04:17:20;14.50;99.90
28839;DHT22;15971;50.772;6.100;2022-10-16T04:19:46;14.60;99.90
28839;DHT22;15971;50.772;6.100;2022-10-16T04:22:11;14.60;99.90
28839;DHT22;15971;50.772;6.100;2022-10-16T04:24:37;14.50;99.90
28839;DHT22;15971;50.772;6.100;2022-10-16T04:27:03;14.40;99.90
28839;DHT22;15971;50.772;6.100;2022-10-16T04:29:28;14.40;99.90
28839;DHT22;15971;50.772;6.100;2022-10-16T04:31:54;14.40;99.90
28839;DHT22;15971;50.772;6.100;2022-10-16T04:34:20;14.50;99.90
28839;DHT22;15971;50.772;6.100;2022-10-16T04:36:47;14.30;99.90
28839;DHT22;15971;50.772;6.100;2022-10-16T04:39:15;14.30;99.90
28839;DHT22;15971;50.772;6.100;2022-10-16T04:41:40;14.20;99.90
28839;DHT22;15971;50.772;6.100;2022-10-16T04:44:06;14.10;99.90
28839;DHT22;15971;50.772;6.100;2022-10-16T04:46:31;14.30;99.90
28839;DHT22;15971;50.772;6.100;2022-10-16T04:48:57;14.20;99.90
28839;DHT22;15971;50.772;6.100;2022-10-16T04:51:23;14.20;99.90
28839;DHT22;15971;50.772;6.100;2022-10-16T04:53:49;14.20;99.90
28839;DHT22;15971;50.772;6.100;2022-10-16T04:56:14;14.20;99.90
28839;DHT22;15971;50.772;6.100;2022-10-16T04:58:40;14.20;99.90
28839;DHT22;15971;50.772;6.100;2022-10-16T05:01:06;14.30;99.90
28839;DHT22;15971;50.772;6.100;2022-10-16T05:03:32;14.20;99.90
28839;DHT22;15971;50.772;6.100;2022-10-16T05:05:57;14.30;99.90
28839;DHT22;15971;50.772;6.100;2022-10-16T05:08:23;14.30;99.90
28839;DHT22;15971;50.772;6.100;2022-10-16T05:10:48;14.40;99.90
28839;DHT22;15971;50.772;6.100;2022-10-16T05:13:14;14.40;99.90
28839;DHT22;15971;50.772;6.100;2022-10-16T05:15:40;14.50;99.90
28839;DHT22;15971;50.772;6.100;2022-10-16T05:18:05;14.40;99.90
28839;DHT22;15971;50.772;6.100;2022-10-16T05:20:31;14.40;99.90
28839;DHT22;15971;50.772;6.100;2022-10-16T05:22:57;14.40;99.90
28839;DHT22;15971;50.772;6.100;2022-10-16T05:25:22;14.40;99.90
28839;DHT22;15971;50.772;6.100;2022-10-16T05:27:49;14.40;99.90
28839;DHT22;15971;50.772;6.100;2022-10-16T05:30:16;14.30;99.90
28839;DHT22;15971;50.772;6.100;2022-10-16T05:32:47;14.50;99.90
28839;DHT22;15971;50.772;6.100;2022-10-16T05:35:13;14.50;99.90
28839;DHT22;15971;50.772;6.100;2022-10-16T05:37:38;14.30;99.90
28839;DHT22;15971;50.772;6.100;2022-10-16T05:40:04;14.30;99.90
28839;DHT22;15971;50.772;6.100;2022-10-16T05:42:30;14.30;99.90
28839;DHT22;15971;50.772;6.100;2022-10-16T05:44:56;14.30;99.90
28839;DHT22;15971;50.772;6.100;2022-10-16T05:47:21;14.20;99.90
28839;DHT22;15971;50.772;6.100;2022-10-16T05:49:47;14.20;99.90
28839;DHT22;15971;50.772;6.100;2022-10-16T05:52:12;14.20;99.90
28839;DHT22;15971;50.772;6.100;2022-10-16T05:54:38;14.20;99.90
28839;DHT22;15971;50.772;6.100;2022-10-16T05:57:03;14.20;99.90
28839;DHT22;15971;50.772;6.100;2022-10-16T05:59:31;14.10;99.90
28839;DHT22;15971;50.772;6.100;2022-10-16T06:01:57;14.20;99.90
28839;DHT22;15971;50.772;6.100;2022-10-16T06:04:22;14.20;99.90
28839;DHT22;15971;50.772;6.100;2022-10-16T06:06:48;14.20;99.90
28839;DHT22;15971;50.772;6.100;2022-10-16T06:09:14;14.30;99.90
28839;DHT22;15971;50.772;6.100;2022-10-16T06:11:39;14.30;99.90
28839;DHT22;15971;50.772;6.100;2022-10-16T06:14:05;14.30;99.90
28839;DHT22;15971;50.772;6.100;2022-10-16T06:16:35;14.20;99.90
28839;DHT22;15971;50.772;6.100;2022-10-16T06:19:01;14.20;99.90
28839;DHT22;15971;50.772;6.100;2022-10-16T06:21:28;14.20;99.90
28839;DHT22;15971;50.772;6.100;2022-10-16T06:23:55;14.20;99.90
28839;DHT22;15971;50.772;6.100;2022-10-16T06:26:23;14.30;99.90
28839;DHT22;15971;50.772;6.100;2022-10-16T06:28:49;14.20;99.90
28839;DHT22;15971;50.772;6.100;2022-10-16T06:31:16;14.40;99.90
28839;DHT22;15971;50.772;6.100;2022-10-16T06:33:42;14.50;99.90
28839;DHT22;15971;50.772;6.100;2022-10-16T06:36:10;14.50;99.90
28839;DHT22;15971;50.772;6.100;2022-10-16T06:38:37;14.70;99.90
28839;DHT22;15971;50.772;6.100;2022-10-16T06:41:03;14.80;99.90
28839;DHT22;15971;50.772;6.100;2022-10-16T06:43:29;14.90;99.90
28839;DHT22;15971;50.772;6.100;2022-10-16T06:46:00;14.90;99.90
28839;DHT22;15971;50.772;6.100;2022-10-16T06:48:27;14.90;99.90
28839;DHT22;15971;50.772;6.100;2022-10-16T06:50:57;14.90;99.90
28839;DHT22;15971;50.772;6.100;2022-10-16T06:53:23;14.90;99.90
28839;DHT22;15971;50.772;6.100;2022-10-16T06:55:49;14.80;99.90
28839;DHT22;15971;50.772;6.100;2022-10-16T06:58:15;14.70;99.90
28839;DHT22;15971;50.772;6.100;2022-10-16T07:00:40;15.10;99.90
28839;DHT22;15971;50.772;6.100;2022-10-16T07:03:06;14.80;99.90
28839;DHT22;15971;50.772;6.100;2022-10-16T07:05:31;14.70;99.90
28839;DHT22;15971;50.772;6.100;2022-10-16T07:07:57;14.70;99.90
28839;DHT22;15971;50.772;6.100;2022-10-16T07:10:23;14.70;99.90
28839;DHT22;15971;50.772;6.100;2022-10-16T07:12:51;15.00;99.90
28839;DHT22;15971;50.772;6.100;2022-10-16T07:15:16;14.50;99.90
28839;DHT22;15971;50.772;6.100;2022-10-16T07:17:42;14.90;99.90
28839;DHT22;15971;50.772;6.100;2022-10-16T07:20:08;14.60;99.90
28839;DHT22;15971;50.772;6.100;2022-10-16T07:22:33;14.60;99.90
28839;DHT22;15971;50.772;6.100;2022-10-16T07:24:59;14.60;99.90
28839;DHT22;15971;50.772;6.100;2022-10-16T07:27:25;14.60;99.90
28839;DHT22;15971;50.772;6.100;2022-10-16T07:29:51;14.70;99.90
28839;DHT22;15971;50.772;6.100;2022-10-16T07:32:17;14.70;99.90
28839;DHT22;15971;50.772;6.100;2022-10-16T07:34:42;14.80;99.90
28839;DHT22;15971;50.772;6.100;2022-10-16T07:37:08;14.90;99.90
28839;DHT22;15971;50.772;6.100;2022-10-16T07:39:33;15.00;99.90
28839;DHT22;15971;50.772;6.100;2022-10-16T07:41:59;15.00;99.90
28839;DHT22;15971;50.772;6.100;2022-10-16T07:44:24;15.40;99.90
28839;DHT22;15971;50.772;6.100;2022-10-16T07:46:50;15.30;99.90
28839;DHT22;15971;50.772;6.100;2022-10-16T07:49:16;15.30;99.90
28839;DHT22;15971;50.772;6.100;2022-10-16T07:51:41;15.30;99.90
28839;DHT22;15971;50.772;6.100;2022-10-16T07:54:09;15.60;99.90
28839;DHT22;15971;50.772;6.100;2022-10-16T07:56:35;15.50;99.90
28839;DHT22;15971;50.772;6.100;2022-10-16T07:59:00;15.70;99.90
28839;DHT22;15971;50.772;6.100;2022-10-16T08:01:26;15.90;99.90
28839;DHT22;15971;50.772;6.100;2022-10-16T08:03:52;15.80;99.90
28839;DHT22;15971;50.772;6.100;2022-10-16T08:06:19;15.90;99.90
28839;DHT22;15971;50.772;6.100;2022-10-16T08:08:45;15.90;99.90
28839;DHT22;15971;50.772;6.100;2022-10-16T08:11:11;16.00;99.90
28839;DHT22;15971;50.772;6.100;2022-10-16T08:13:37;16.30;99.90
28839;DHT22;15971;50.772;6.100;2022-10-16T08:16:03;16.20;99.90
28839;DHT22;15971;50.772;6.100;2022-10-16T08:18:34;16.10;99.90
28839;DHT22;15971;50.772;6.100;2022-10-16T08:21:01;16.20;99.90
28839;DHT22;15971;50.772;6.100;2022-10-16T08:23:27;16.40;99.90
28839;DHT22;15971;50.772;6.100;2022-10-16T08:25:54;16.40;99.90
28839;DHT22;15971;50.772;6.100;2022-10-16T08:28:21;16.50;99.90
28839;DHT22;15971;50.772;6.100;2022-10-16T08:30:46;16.60;99.90
28839;DHT22;15971;50.772;6.100;2022-10-16T08:33:12;16.50;99.90
28839;DHT22;15971;50.772;6.100;2022-10-16T08:35:38;16.70;99.90
28839;DHT22;15971;50.772;6.100;2022-10-16T08:38:04;16.60;99.90
28839;DHT22;15971;50.772;6.100;2022-10-16T08:40:32;16.70;99.90
28839;DHT22;15971;50.772;6.100;2022-10-16T08:48:36;16.90;99.90
28839;DHT22;15971;50.772;6.100;2022-10-16T08:51:08;17.00;99.90
28839;DHT22;15971;50.772;6.100;2022-10-16T08:53:48;17.10;99.90
28839;DHT22;15971;50.772;6.100;2022-10-16T08:56:14;17.10;99.90
28839;DHT22;15971;50.772;6.100;2022-10-16T08:58:40;17.20;99.90
28839;DHT22;15971;50.772;6.100;2022-10-16T09:01:12;17.30;99.90
28839;DHT22;15971;50.772;6.100;2022-10-16T09:03:45;17.30;99.90
28839;DHT22;15971;50.772;6.100;2022-10-16T09:06:39;17.40;99.90
28839;DHT22;15971;50.772;6.100;2022-10-16T09:14:58;17.60;99.90
28839;DHT22;15971;50.772;6.100;2022-10-16T09:17:37;17.60;99.90
28839;DHT22;15971;50.772;6.100;2022-10-16T09:20:16;17.70;99.90
28839;DHT22;15971;50.772;6.100;2022-10-16T09:22:43;17.60;99.90
28839;DHT22;15971;50.772;6.100;2022-10-16T09:25:15;17.80;99.90
28839;DHT22;15971;50.772;6.100;2022-10-16T09:27:42;17.90;99.90
28839;DHT22;15971;50.772;6.100;2022-10-16T09:30:18;18.10;99.90
28839;DHT22;15971;50.772;6.100;2022-10-16T09:32:45;18.20;99.90
28839;DHT22;15971;50.772;6.100;2022-10-16T09:35:18;18.10;99.90
28839;DHT22;15971;50.772;6.100;2022-10-16T09:37:46;18.20;99.90
28839;DHT22;15971;50.772;6.100;2022-10-16T09:40:35;18.20;99.90
28839;DHT22;15971;50.772;6.100;2022-10-16T09:45:38;18.40;99.90
28839;DHT22;15971;50.772;6.100;2022-10-16T09:48:12;18.70;99.90
28839;DHT22;15971;50.772;6.100;2022-10-16T09:50:38;18.70;99.90
28839;DHT22;15971;50.772;6.100;2022-10-16T09:53:14;19.00;99.90
28839;DHT22;15971;50.772;6.100;2022-10-16T09:55:53;18.90;99.90
28839;DHT22;15971;50.772;6.100;2022-10-16T09:58:22;19.00;99.90
28839;DHT22;15971;50.772;6.100;2022-10-16T10:00:53;19.00;99.90
28839;DHT22;15971;50.772;6.100;2022-10-16T10:03:36;19.10;99.90
28839;DHT22;15971;50.772;6.100;2022-10-16T10:06:16;19.50;99.90
28839;DHT22;15971;50.772;6.100;2022-10-16T10:09:01;20.00;99.90
28839;DHT22;15971;50.772;6.100;2022-10-16T10:14:20;20.00;99.90
28839;DHT22;15971;50.772;6.100;2022-10-16T10:16:47;20.00;99.90
28839;DHT22;15971;50.772;6.100;2022-10-16T10:19:15;20.00;99.90
28839;DHT22;15971;50.772;6.100;2022-10-16T10:21:41;19.60;99.90
28839;DHT22;15971;50.772;6.100;2022-10-16T10:24:17;19.40;99.90
28839;DHT22;15971;50.772;6.100;2022-10-16T10:26:55;19.30;99.90
28839;DHT22;15971;50.772;6.100;2022-10-16T10:35:31;18.70;99.90
28839;DHT22;15971;50.772;6.100;2022-10-16T10:43:48;18.50;99.90
28839;DHT22;15971;50.772;6.100;2022-10-16T10:46:38;18.50;99.90
28839;DHT22;15971;50.772;6.100;2022-10-16T10:49:19;18.20;99.90
28839;DHT22;15971;50.772;6.100;2022-10-16T10:54:35;18.30;99.90
28839;DHT22;15971;50.772;6.100;2022-10-16T10:57:12;18.60;99.90
28839;DHT22;15971;50.772;6.100;2022-10-16T10:59:48;18.90;99.90
28839;DHT22;15971;50.772;6.100;2022-10-16T11:02:47;19.20;99.90
28839;DHT22;15971;50.772;6.100;2022-10-16T11:05:42;19.30;99.90
28839;DHT22;15971;50.772;6.100;2022-10-16T11:08:10;19.50;99.90
28839;DHT22;15971;50.772;6.100;2022-10-16T11:11:33;19.20;99.90
28839;DHT22;15971;50.772;6.100;2022-10-16T11:16:18;19.00;99.90
28839;DHT22;15971;50.772;6.100;2022-10-16T11:19:03;19.10;99.90
28839;DHT22;15971;50.772;6.100;2022-10-16T11:21:43;19.30;99.90
28839;DHT22;15971;50.772;6.100;2022-10-16T11:24:23;19.60;99.90
28839;DHT22;15971;50.772;6.100;2022-10-16T11:26:53;19.90;99.90
28839;DHT22;15971;50.772;6.100;2022-10-16T11:29:26;19.80;99.90
28839;DHT22;15971;50.772;6.100;2022-10-16T11:31:59;19.80;99.90
28839;DHT22;15971;50.772;6.100;2022-10-16T11:34:44;20.00;99.90
28839;DHT22;15971;50.772;6.100;2022-10-16T11:37:27;19.90;99.90
28839;DHT22;15971;50.772;6.100;2022-10-16T11:40:02;20.10;99.90
28839;DHT22;15971;50.772;6.100;2022-10-16T11:42:37;20.40;99.90
28839;DHT22;15971;50.772;6.100;2022-10-16T11:47:44;20.00;99.90
28839;DHT22;15971;50.772;6.100;2022-10-16T11:50:29;20.50;99.90
28839;DHT22;15971;50.772;6.100;2022-10-16T11:55:41;21.00;99.90
28839;DHT22;15971;50.772;6.100;2022-10-16T11:58:27;20.60;99.90
28839;DHT22;15971;50.772;6.100;2022-10-16T12:08:49;21.60;99.90
28839;DHT22;15971;50.772;6.100;2022-10-16T12:11:36;21.50;99.90
28839;DHT22;15971;50.772;6.100;2022-10-16T12:14:20;21.60;99.90
28839;DHT22;15971;50.772;6.100;2022-10-16T12:17:01;21.70;99.90
28839;DHT22;15971;50.772;6.100;2022-10-16T12:19:29;21.10;99.90
28839;DHT22;15971;50.772;6.100;2022-10-16T12:22:00;21.20;99.90
28839;DHT22;15971;50.772;6.100;2022-10-16T12:24:41;21.80;99.90
28839;DHT22;15971;50.772;6.100;2022-10-16T12:29:58;21.80;99.90
28839;DHT22;15971;50.772;6.100;2022-10-16T12:34:53;21.00;99.90
28839;DHT22;15971;50.772;6.100;2022-10-16T12:37:23;20.80;99.90
28839;DHT22;15971;50.772;6.100;2022-10-16T12:39:50;21.00;99.90
28839;DHT22;15971;50.772;6.100;2022-10-16T12:44:51;21.30;99.90
28839;DHT22;15971;50.772;6.100;2022-10-16T12:47:47;21.40;99.90
28839;DHT22;15971;50.772;6.100;2022-10-16T12:50:24;21.30;99.90
28839;DHT22;15971;50.772;6.100;2022-10-16T12:52:49;21.20;99.90
28839;DHT22;15971;50.772;6.100;2022-10-16T12:55:21;21.30;99.90
28839;DHT22;15971;50.772;6.100;2022-10-16T13:16:50;21.40;99.90
28839;DHT22;15971;50.772;6.100;2022-10-16T13:19:47;21.40;99.90
28839;DHT22;15971;50.772;6.100;2022-10-16T13:22:33;21.20;99.90
28839;DHT22;15971;50.772;6.100;2022-10-16T13:25:17;21.40;99.90
28839;DHT22;15971;50.772;6.100;2022-10-16T13:28:00;21.50;99.90
28839;DHT22;15971;50.772;6.100;2022-10-16T13:30:33;21.20;99.90
28839;DHT22;15971;50.772;6.100;2022-10-16T13:33:01;21.30;99.90
28839;DHT22;15971;50.772;6.100;2022-10-16T13:35:33;21.60;99.90
28839;DHT22;15971;50.772;6.100;2022-10-16T13:38:15;21.80;99.90
28839;DHT22;15971;50.772;6.100;2022-10-16T13:41:05;21.30;99.90
28839;DHT22;15971;50.772;6.100;2022-10-16T13:43:34;21.70;99.90
28839;DHT22;15971;50.772;6.100;2022-10-16T13:48:28;21.60;99.90
28839;DHT22;15971;50.772;6.100;2022-10-16T13:51:24;21.80;99.90
28839;DHT22;15971;50.772;6.100;2022-10-16T13:53:47;21.90;99.90
28839;DHT22;15971;50.772;6.100;2022-10-16T13:56:19;21.50;99.90
28839;DHT22;15971;50.772;6.100;2022-10-16T13:58:45;21.30;99.90
28839;DHT22;15971;50.772;6.100;2022-10-16T14:01:22;21.10;99.90
28839;DHT22;15971;50.772;6.100;2022-10-16T14:03:49;21.10;99.90
28839;DHT22;15971;50.772;6.100;2022-10-16T14:06:18;21.00;99.90
28839;DHT22;15971;50.772;6.100;2022-10-16T14:08:50;21.00;99.90
28839;DHT22;15971;50.772;6.100;2022-10-16T14:11:23;20.90;99.90
28839;DHT22;15971;50.772;6.100;2022-10-16T14:13:50;21.20;99.90
28839;DHT22;15971;50.772;6.100;2022-10-16T14:16:27;21.40;99.90
28839;DHT22;15971;50.772;6.100;2022-10-16T14:19:04;21.20;99.90
28839;DHT22;15971;50.772;6.100;2022-10-16T14:21:36;21.40;99.90
28839;DHT22;15971;50.772;6.100;2022-10-16T14:24:13;21.20;99.90
28839;DHT22;15971;50.772;6.100;2022-10-16T14:26:47;21.30;99.90
28839;DHT22;15971;50.772;6.100;2022-10-16T14:29:17;21.40;99.90
28839;DHT22;15971;50.772;6.100;2022-10-16T14:31:55;21.50;99.90
28839;DHT22;15971;50.772;6.100;2022-10-16T14:34:30;21.40;99.90
28839;DHT22;15971;50.772;6.100;2022-10-16T14:37:40;21.60;99.90
28839;DHT22;15971;50.772;6.100;2022-10-16T14:39:51;21.80;99.90
28839;DHT22;15971;50.772;6.100;2022-10-16T14:42:18;21.80;99.90
28839;DHT22;15971;50.772;6.100;2022-10-16T14:44:45;21.80;99.90
28839;DHT22;15971;50.772;6.100;2022-10-16T14:47:17;21.70;99.90
28839;DHT22;15971;50.772;6.100;2022-10-16T14:49:47;21.90;99.90
28839;DHT22;15971;50.772;6.100;2022-10-16T14:52:14;21.60;99.90
28839;DHT22;15971;50.772;6.100;2022-10-16T14:54:40;21.60;99.90
28839;DHT22;15971;50.772;6.100;2022-10-16T14:57:05;21.50;99.90
28839;DHT22;15971;50.772;6.100;2022-10-16T14:59:42;21.60;99.90
28839;DHT22;15971;50.772;6.100;2022-10-16T15:02:27;21.60;99.90
28839;DHT22;15971;50.772;6.100;2022-10-16T15:04:53;21.50;99.90
28839;DHT22;15971;50.772;6.100;2022-10-16T15:07:19;21.30;99.90
28839;DHT22;15971;50.772;6.100;2022-10-16T15:09:45;21.10;99.90
28839;DHT22;15971;50.772;6.100;2022-10-16T15:12:10;21.00;99.90
28839;DHT22;15971;50.772;6.100;2022-10-16T15:14:37;20.80;99.90
28839;DHT22;15971;50.772;6.100;2022-10-16T15:17:02;21.00;99.90
28839;DHT22;15971;50.772;6.100;2022-10-16T15:19:28;20.90;99.90
28839;DHT22;15971;50.772;6.100;2022-10-16T15:21:54;20.80;99.90
28839;DHT22;15971;50.772;6.100;2022-10-16T15:24:19;20.80;99.90
28839;DHT22;15971;50.772;6.100;2022-10-16T15:26:45;20.80;99.90
28839;DHT22;15971;50.772;6.100;2022-10-16T15:29:15;20.80;99.90
28839;DHT22;15971;50.772;6.100;2022-10-16T15:31:41;20.70;99.90
28839;DHT22;15971;50.772;6.100;2022-10-16T15:34:10;20.70;99.90
28839;DHT22;15971;50.772;6.100;2022-10-16T15:36:37;20.70;99.90
28839;DHT22;15971;50.772;6.100;2022-10-16T15:39:21;20.60;99.90
28839;DHT22;15971;50.772;6.100;2022-10-16T15:41:47;20.50;99.90
28839;DHT22;15971;50.772;6.100;2022-10-16T15:44:16;20.40;99.90
28839;DHT22;15971;50.772;6.100;2022-10-16T15:46:42;20.30;99.90
28839;DHT22;15971;50.772;6.100;2022-10-16T15:49:09;20.30;99.90
28839;DHT22;15971;50.772;6.100;2022-10-16T15:51:38;20.20;99.90
28839;DHT22;15971;50.772;6.100;2022-10-16T15:54:03;20.20;99.90
28839;DHT22;15971;50.772;6.100;2022-10-16T15:56:29;20.20;99.90
28839;DHT22;15971;50.772;6.100;2022-10-16T15:58:56;20.20;99.90
28839;DHT22;15971;50.772;6.100;2022-10-16T16:01:23;20.10;99.90
28839;DHT22;15971;50.772;6.100;2022-10-16T16:03:53;20.00;99.90
28839;DHT22;15971;50.772;6.100;2022-10-16T16:06:20;20.00;99.90
28839;DHT22;15971;50.772;6.100;2022-10-16T16:08:46;19.80;99.90
28839;DHT22;15971;50.772;6.100;2022-10-16T16:11:13;19.90;99.90
28839;DHT22;15971;50.772;6.100;2022-10-16T16:13:40;19.80;99.90
28839;DHT22;15971;50.772;6.100;2022-10-16T16:16:08;19.80;99.90
28839;DHT22;15971;50.772;6.100;2022-10-16T16:18:34;19.80;99.90
28839;DHT22;15971;50.772;6.100;2022-10-16T16:20:59;19.90;99.90
28839;DHT22;15971;50.772;6.100;2022-10-16T16:23:25;19.90;99.90
28839;DHT22;15971;50.772;6.100;2022-10-16T16:26:23;19.80;99.90
28839;DHT22;15971;50.772;6.100;2022-10-16T16:28:52;19.70;99.90
28839;DHT22;15971;50.772;6.100;2022-10-16T16:31:18;19.70;99.90
28839;DHT22;15971;50.772;6.100;2022-10-16T16:33:43;19.70;99.90
28839;DHT22;15971;50.772;6.100;2022-10-16T16:36:09;19.50;99.90
28839;DHT22;15971;50.772;6.100;2022-10-16T16:38:35;19.40;99.90
28839;DHT22;15971;50.772;6.100;2022-10-16T16:41:11;19.30;99.90
28839;DHT22;15971;50.772;6.100;2022-10-16T16:43:37;19.30;99.90
28839;DHT22;15971;50.772;6.100;2022-10-16T16:46:02;19.30;99.90
28839;DHT22;15971;50.772;6.100;2022-10-16T16:48:28;19.30;99.90
28839;DHT22;15971;50.772;6.100;2022-10-16T16:50:54;19.30;99.90
28839;DHT22;15971;50.772;6.100;2022-10-16T16:53:19;19.20;99.90
28839;DHT22;15971;50.772;6.100;2022-10-16T16:55:45;19.10;99.90
28839;DHT22;15971;50.772;6.100;2022-10-16T16:58:10;19.10;99.90
28839;DHT22;15971;50.772;6.100;2022-10-16T17:00:36;19.60;99.90
28839;DHT22;15971;50.772;6.100;2022-10-16T17:03:02;19.20;99.90
28839;DHT22;15971;50.772;6.100;2022-10-16T17:05:28;19.10;99.90
28839;DHT22;15971;50.772;6.100;2022-10-16T17:07:53;19.10;99.90